sensor_id;sensor_type;location;lat;lon;timestamp;pressure;altitude;pressure_sealevel;temperature
29701;BMP280;57917;51.380;-0.176;2023-02-18T00:01:11;101999.03;;;13.51
29701;BMP280;57917;51.380;-0.176;2023-02-18T00:07:01;102004.63;;;13.59
29701;BMP280;57917;51.380;-0.176;2023-02-18T00:12:48;101994.19;;;13.38
29701;BMP280;57917;51.380;-0.176;2023-02-18T00:18:36;101996.31;;;13.41
29701;BMP280;57917;51.380;-0.176;2023-02-18T00:24:23;101994.19;;;13.33
29701;BMP280;57917;51.380;-0.176;2023-02-18T00:30:10;101993.38;;;13.37
29701;BMP280;57917;51.380;-0.176;2023-02-18T00:36:06;101980.13;;;13.62
29701;BMP280;57917;51.380;-0.176;2023-02-18T00:41:54;101987.81;;;13.54
29701;BMP280;57917;51.380;-0.176;2023-02-18T00:47:41;101979.75;;;13.19
29701;BMP280;57917;51.380;-0.176;2023-02-18T00:53:31;101987.19;;;13.22
29701;BMP280;57917;51.380;-0.176;2023-02-18T00:59:18;101979.75;;;13.29
29701;BMP280;57917;51.380;-0.176;2023-02-18T01:05:05;101971.22;;;13.12
29701;BMP280;57917;51.380;-0.176;2023-02-18T01:10:53;101968.88;;;13.20
29701;BMP280;57917;51.380;-0.176;2023-02-18T01:16:41;101948.31;;;13.01
29701;BMP280;57917;51.380;-0.176;2023-02-18T01:22:29;101949.38;;;13.05
29701;BMP280;57917;51.380;-0.176;2023-02-18T01:28:19;101944.63;;;13.07
29701;BMP280;57917;51.380;-0.176;2023-02-18T01:34:13;101949.16;;;13.11
29701;BMP280;57917;51.380;-0.176;2023-02-18T01:40:01;101954.69;;;13.00
29701;BMP280;57917;51.380;-0.176;2023-02-18T01:52:10;101936.56;;;12.87
29701;BMP280;57917;51.380;-0.176;2023-02-18T01:57:58;101945.84;;;12.84
29701;BMP280;57917;51.380;-0.176;2023-02-18T02:03:45;101942.03;;;12.70
29701;BMP280;57917;51.380;-0.176;2023-02-18T02:09:34;101920.75;;;12.60
29701;BMP280;57917;51.380;-0.176;2023-02-18T02:34:33;101917.03;;;12.19
29701;BMP280;57917;51.380;-0.176;2023-02-18T02:40:45;101903.69;;;12.09
29701;BMP280;57917;51.380;-0.176;2023-02-18T02:46:46;101872.41;;;12.16
29701;BMP280;57917;51.380;-0.176;2023-02-18T02:52:45;101868.91;;;12.11
29701;BMP280;57917;51.380;-0.176;2023-02-18T02:58:33;101882.44;;;12.09
29701;BMP280;57917;51.380;-0.176;2023-02-18T03:10:41;101830.00;;;12.26
29701;BMP280;57917;51.380;-0.176;2023-02-18T03:16:57;101802.00;;;12.09
29701;BMP280;57917;51.380;-0.176;2023-02-18T03:22:50;101813.06;;;12.42
29701;BMP280;57917;51.380;-0.176;2023-02-18T03:28:38;101781.06;;;12.12
29701;BMP280;57917;51.380;-0.176;2023-02-18T03:34:31;101765.06;;;12.02
29701;BMP280;57917;51.380;-0.176;2023-02-18T03:40:21;101780.22;;;12.02
29701;BMP280;57917;51.380;-0.176;2023-02-18T03:46:08;101778.41;;;12.07
29701;BMP280;57917;51.380;-0.176;2023-02-18T03:51:56;101774.97;;;12.17
29701;BMP280;57917;51.380;-0.176;2023-02-18T03:57:42;101755.00;;;12.04
29701;BMP280;57917;51.380;-0.176;2023-02-18T04:03:30;101771.44;;;12.01
29701;BMP280;57917;51.380;-0.176;2023-02-18T04:09:16;101777.84;;;12.10
29701;BMP280;57917;51.380;-0.176;2023-02-18T04:15:04;101764.75;;;11.94
29701;BMP280;57917;51.380;-0.176;2023-02-18T04:20:50;101767.16;;;12.00
29701;BMP280;57917;51.380;-0.176;2023-02-18T04:26:37;101757.97;;;12.13
29701;BMP280;57917;51.380;-0.176;2023-02-18T04:32:25;101753.16;;;12.05
29701;BMP280;57917;51.380;-0.176;2023-02-18T04:38:17;101752.81;;;11.96
29701;BMP280;57917;51.380;-0.176;2023-02-18T04:44:04;101735.53;;;11.94
29701;BMP280;57917;51.380;-0.176;2023-02-18T04:50:03;101750.06;;;11.81
29701;BMP280;57917;51.380;-0.176;2023-02-18T04:55:50;101743.84;;;11.97
29701;BMP280;57917;51.380;-0.176;2023-02-18T05:01:38;101735.28;;;11.90
29701;BMP280;57917;51.380;-0.176;2023-02-18T05:07:25;101744.94;;;12.06
29701;BMP280;57917;51.380;-0.176;2023-02-18T05:13:14;101735.88;;;11.97
29701;BMP280;57917;51.380;-0.176;2023-02-18T05:19:01;101755.84;;;12.10
29701;BMP280;57917;51.380;-0.176;2023-02-18T05:24:48;101751.25;;;12.00
29701;BMP280;57917;51.380;-0.176;2023-02-18T05:30:34;101756.84;;;11.99
29701;BMP280;57917;51.380;-0.176;2023-02-18T05:36:21;101784.19;;;11.99
29701;BMP280;57917;51.380;-0.176;2023-02-18T05:42:08;101769.03;;;12.00
29701;BMP280;57917;51.380;-0.176;2023-02-18T05:47:56;101773.19;;;12.27
29701;BMP280;57917;51.380;-0.176;2023-02-18T05:53:42;101773.16;;;12.22
29701;BMP280;57917;51.380;-0.176;2023-02-18T05:59:30;101787.69;;;12.10
29701;BMP280;57917;51.380;-0.176;2023-02-18T06:05:17;101786.88;;;12.09
29701;BMP280;57917;51.380;-0.176;2023-02-18T06:11:04;101768.84;;;12.11
29701;BMP280;57917;51.380;-0.176;2023-02-18T06:16:52;101769.69;;;12.22
29701;BMP280;57917;51.380;-0.176;2023-02-18T06:22:42;101765.50;;;12.36
29701;BMP280;57917;51.380;-0.176;2023-02-18T06:28:29;101764.56;;;12.10
29701;BMP280;57917;51.380;-0.176;2023-02-18T06:34:16;101760.91;;;12.16
29701;BMP280;57917;51.380;-0.176;2023-02-18T06:40:04;101738.06;;;12.15
29701;BMP280;57917;51.380;-0.176;2023-02-18T06:45:51;101759.63;;;12.24
29701;BMP280;57917;51.380;-0.176;2023-02-18T06:51:38;101759.38;;;12.30
29701;BMP280;57917;51.380;-0.176;2023-02-18T06:57:27;101759.38;;;12.30
29701;BMP280;57917;51.380;-0.176;2023-02-18T07:03:14;101756.69;;;12.20
29701;BMP280;57917;51.380;-0.176;2023-02-18T07:09:01;101753.22;;;12.25
29701;BMP280;57917;51.380;-0.176;2023-02-18T07:14:50;101748.75;;;12.20
29701;BMP280;57917;51.380;-0.176;2023-02-18T07:20:37;101754.03;;;12.25
29701;BMP280;57917;51.380;-0.176;2023-02-18T07:26:24;101753.50;;;12.18
29701;BMP280;57917;51.380;-0.176;2023-02-18T07:32:12;101758.22;;;12.11
29701;BMP280;57917;51.380;-0.176;2023-02-18T07:37:59;101760.09;;;12.16
29701;BMP280;57917;51.380;-0.176;2023-02-18T07:43:48;101776.41;;;12.34
29701;BMP280;57917;51.380;-0.176;2023-02-18T07:49:35;101778.00;;;12.40
29701;BMP280;57917;51.380;-0.176;2023-02-18T07:55:22;101776.44;;;12.44
29701;BMP280;57917;51.380;-0.176;2023-02-18T08:01:11;101784.94;;;12.46
29701;BMP280;57917;51.380;-0.176;2023-02-18T08:07:05;101784.38;;;12.34
29701;BMP280;57917;51.380;-0.176;2023-02-18T08:12:52;101798.75;;;12.43
29701;BMP280;57917;51.380;-0.176;2023-02-18T08:18:51;101797.16;;;12.52
29701;BMP280;57917;51.380;-0.176;2023-02-18T08:24:42;101802.56;;;12.67
29701;BMP280;57917;51.380;-0.176;2023-02-18T08:30:29;101797.16;;;12.52
29701;BMP280;57917;51.380;-0.176;2023-02-18T08:36:17;101773.34;;;12.72
29701;BMP280;57917;51.380;-0.176;2023-02-18T08:42:07;101785.00;;;12.61
29701;BMP280;57917;51.380;-0.176;2023-02-18T08:47:54;101780.25;;;12.83
29701;BMP280;57917;51.380;-0.176;2023-02-18T08:54:01;101790.63;;;12.85
29701;BMP280;57917;51.380;-0.176;2023-02-18T08:59:51;101803.91;;;12.85
29701;BMP280;57917;51.380;-0.176;2023-02-18T09:05:39;101789.91;;;13.20
29701;BMP280;57917;51.380;-0.176;2023-02-18T09:11:26;101786.69;;;13.23
29701;BMP280;57917;51.380;-0.176;2023-02-18T09:17:13;101809.56;;;13.19
29701;BMP280;57917;51.380;-0.176;2023-02-18T09:29:56;101815.44;;;13.51
29701;BMP280;57917;51.380;-0.176;2023-02-18T09:35:44;101822.34;;;13.72
29701;BMP280;57917;51.380;-0.176;2023-02-18T09:41:44;101836.19;;;13.69
29701;BMP280;57917;51.380;-0.176;2023-02-18T09:47:37;101860.66;;;13.46
29701;BMP280;57917;51.380;-0.176;2023-02-18T09:53:25;101852.69;;;13.31
29701;BMP280;57917;51.380;-0.176;2023-02-18T09:59:16;101850.53;;;13.53
29701;BMP280;57917;51.380;-0.176;2023-02-18T10:05:03;101833.25;;;13.75
29701;BMP280;57917;51.380;-0.176;2023-02-18T10:10:50;101831.88;;;13.98
29701;BMP280;57917;51.380;-0.176;2023-02-18T10:16:37;101831.00;;;14.22
29701;BMP280;57917;51.380;-0.176;2023-02-18T10:22:25;101829.97;;;14.23
29701;BMP280;57917;51.380;-0.176;2023-02-18T10:28:13;101832.03;;;14.31
29701;BMP280;57917;51.380;-0.176;2023-02-18T10:34:10;101840.84;;;14.27
29701;BMP280;57917;51.380;-0.176;2023-02-18T10:40:09;101846.44;;;14.20
29701;BMP280;57917;51.380;-0.176;2023-02-18T11:05:34;101869.09;;;14.28
29701;BMP280;57917;51.380;-0.176;2023-02-18T11:11:35;101871.22;;;14.26
29701;BMP280;57917;51.380;-0.176;2023-02-18T11:17:27;101853.97;;;14.03
29701;BMP280;57917;51.380;-0.176;2023-02-18T11:23:20;101869.41;;;14.11
29701;BMP280;57917;51.380;-0.176;2023-02-18T11:29:19;101875.50;;;14.17
29701;BMP280;57917;51.380;-0.176;2023-02-18T11:35:16;101877.63;;;14.15
29701;BMP280;57917;51.380;-0.176;2023-02-18T11:41:09;101879.22;;;14.31
29701;BMP280;57917;51.380;-0.176;2023-02-18T11:47:18;101884.03;;;14.04
29701;BMP280;57917;51.380;-0.176;2023-02-18T11:53:25;101887.25;;;14.11
29701;BMP280;57917;51.380;-0.176;2023-02-18T11:59:13;101892.03;;;14.09
29701;BMP280;57917;51.380;-0.176;2023-02-18T12:05:25;101868.56;;;14.21
29701;BMP280;57917;51.380;-0.176;2023-02-18T12:11:20;101883.25;;;14.03
29701;BMP280;57917;51.380;-0.176;2023-02-18T12:17:24;101880.34;;;14.05
29701;BMP280;57917;51.380;-0.176;2023-02-18T12:23:27;101873.09;;;14.30
29701;BMP280;57917;51.380;-0.176;2023-02-18T12:29:31;101874.75;;;13.91
29701;BMP280;57917;51.380;-0.176;2023-02-18T12:35:31;101868.63;;;14.01
29701;BMP280;57917;51.380;-0.176;2023-02-18T12:41:38;101880.34;;;14.00
29701;BMP280;57917;51.380;-0.176;2023-02-18T13:13:57;101877.19;;;14.67
29701;BMP280;57917;51.380;-0.176;2023-02-18T13:19:53;101868.56;;;14.31
29701;BMP280;57917;51.380;-0.176;2023-02-18T13:25:43;101863.69;;;14.48
29701;BMP280;57917;51.380;-0.176;2023-02-18T13:43:58;101848.53;;;14.49
29701;BMP280;57917;51.380;-0.176;2023-02-18T13:49:49;101850.66;;;14.47
29701;BMP280;57917;51.380;-0.176;2023-02-18T13:55:51;101842.13;;;14.44
29701;BMP280;57917;51.380;-0.176;2023-02-18T14:02:33;101834.53;;;14.13
29701;BMP280;57917;51.380;-0.176;2023-02-18T14:08:33;101812.97;;;14.04
29701;BMP280;57917;51.380;-0.176;2023-02-18T14:32:02;101799.38;;;14.11
29701;BMP280;57917;51.380;-0.176;2023-02-18T14:38:22;101812.19;;;13.99
29701;BMP280;57917;51.380;-0.176;2023-02-18T14:50:17;101810.88;;;13.71
29701;BMP280;57917;51.380;-0.176;2023-02-18T14:56:09;101799.97;;;13.73
29701;BMP280;57917;51.380;-0.176;2023-02-18T15:01:58;101801.59;;;13.69
29701;BMP280;57917;51.380;-0.176;2023-02-18T15:13:54;101791.88;;;14.08
29701;BMP280;57917;51.380;-0.176;2023-02-18T15:19:46;101780.53;;;13.87
29701;BMP280;57917;51.380;-0.176;2023-02-18T15:25:35;101768.41;;;14.25
29701;BMP280;57917;51.380;-0.176;2023-02-18T15:31:36;101756.69;;;14.21
29701;BMP280;57917;51.380;-0.176;2023-02-18T15:37:24;101752.19;;;14.21
29701;BMP280;57917;51.380;-0.176;2023-02-18T15:43:19;101758.66;;;14.05
29701;BMP280;57917;51.380;-0.176;2023-02-18T15:49:07;101735.69;;;14.19
29701;BMP280;57917;51.380;-0.176;2023-02-18T15:54:55;101730.41;;;14.04
29701;BMP280;57917;51.380;-0.176;2023-02-18T16:00:52;101730.47;;;13.84
29701;BMP280;57917;51.380;-0.176;2023-02-18T16:13:46;101712.38;;;13.86
29701;BMP280;57917;51.380;-0.176;2023-02-18T16:32:28;101718.53;;;13.67
29701;BMP280;57917;51.380;-0.176;2023-02-18T16:38:57;101728.69;;;13.70
29701;BMP280;57917;51.380;-0.176;2023-02-18T16:52:51;101716.38;;;13.89
29701;BMP280;57917;51.380;-0.176;2023-02-18T16:58:40;101721.47;;;13.70
29701;BMP280;57917;51.380;-0.176;2023-02-18T17:04:43;101718.06;;;13.50
29701;BMP280;57917;51.380;-0.176;2023-02-18T17:10:30;101724.72;;;13.47
29701;BMP280;57917;51.380;-0.176;2023-02-18T17:16:19;101723.69;;;13.43
29701;BMP280;57917;51.380;-0.176;2023-02-18T17:22:06;101733.53;;;13.33
29701;BMP280;57917;51.380;-0.176;2023-02-18T17:27:55;101743.88;;;13.39
29701;BMP280;57917;51.380;-0.176;2023-02-18T17:33:44;101728.97;;;13.48
29701;BMP280;57917;51.380;-0.176;2023-02-18T17:39:32;101719.69;;;13.31
29701;BMP280;57917;51.380;-0.176;2023-02-18T17:45:28;101722.63;;;13.14
29701;BMP280;57917;51.380;-0.176;2023-02-18T17:51:26;101731.13;;;13.16
29701;BMP280;57917;51.380;-0.176;2023-02-18T17:57:14;101733.50;;;13.03
29701;BMP280;57917;51.380;-0.176;2023-02-18T18:03:04;101742.53;;;12.97
29701;BMP280;57917;51.380;-0.176;2023-02-18T18:09:02;101745.19;;;12.97
29701;BMP280;57917;51.380;-0.176;2023-02-18T18:14:49;101757.19;;;13.14
29701;BMP280;57917;51.380;-0.176;2023-02-18T18:20:43;101748.44;;;13.14
29701;BMP280;57917;51.380;-0.176;2023-02-18T18:26:38;101736.19;;;13.18
29701;BMP280;57917;51.380;-0.176;2023-02-18T18:32:25;101750.00;;;13.00
29701;BMP280;57917;51.380;-0.176;2023-02-18T18:38:22;101744.69;;;13.20
29701;BMP280;57917;51.380;-0.176;2023-02-18T18:44:12;101752.94;;;13.18
29701;BMP280;57917;51.380;-0.176;2023-02-18T18:50:05;101741.47;;;12.88
29701;BMP280;57917;51.380;-0.176;2023-02-18T18:55:56;101732.69;;;12.82
29701;BMP280;57917;51.380;-0.176;2023-02-18T19:01:44;101736.16;;;12.93
29701;BMP280;57917;51.380;-0.176;2023-02-18T19:07:31;101739.06;;;12.76
29701;BMP280;57917;51.380;-0.176;2023-02-18T19:19:08;101758.59;;;12.35
29701;BMP280;57917;51.380;-0.176;2023-02-18T19:24:56;101773.69;;;12.24
29701;BMP280;57917;51.380;-0.176;2023-02-18T19:30:43;101779.16;;;12.08
29701;BMP280;57917;51.380;-0.176;2023-02-18T19:36:32;101778.44;;;12.17
29701;BMP280;57917;51.380;-0.176;2023-02-18T19:42:19;101785.63;;;12.22
29701;BMP280;57917;51.380;-0.176;2023-02-18T19:48:06;101780.31;;;12.22
29701;BMP280;57917;51.380;-0.176;2023-02-18T19:53:53;101789.53;;;12.14
29701;BMP280;57917;51.380;-0.176;2023-02-18T19:59:45;101798.97;;;11.90
29701;BMP280;57917;51.380;-0.176;2023-02-18T20:05:35;101793.47;;;12.02
29701;BMP280;57917;51.380;-0.176;2023-02-18T20:11:24;101793.94;;;11.94
29701;BMP280;57917;51.380;-0.176;2023-02-18T20:17:11;101789.38;;;11.84
29701;BMP280;57917;51.380;-0.176;2023-02-18T20:23:01;101796.78;;;11.82
29701;BMP280;57917;51.380;-0.176;2023-02-18T20:28:48;101815.25;;;11.67
29701;BMP280;57917;51.380;-0.176;2023-02-18T20:34:34;101809.63;;;12.00
29701;BMP280;57917;51.380;-0.176;2023-02-18T20:40:22;101832.44;;;11.91
29701;BMP280;57917;51.380;-0.176;2023-02-18T20:46:17;101810.97;;;11.98
29701;BMP280;57917;51.380;-0.176;2023-02-18T20:52:09;101841.34;;;11.80
29701;BMP280;57917;51.380;-0.176;2023-02-18T20:58:00;101822.75;;;12.17
29701;BMP280;57917;51.380;-0.176;2023-02-18T21:03:52;101845.78;;;12.06
29701;BMP280;57917;51.380;-0.176;2023-02-18T21:10:16;101831.31;;;11.87
29701;BMP280;57917;51.380;-0.176;2023-02-18T21:16:32;101846.00;;;12.00
29701;BMP280;57917;51.380;-0.176;2023-02-18T21:23:08;101853.94;;;11.95
29701;BMP280;57917;51.380;-0.176;2023-02-18T21:37:03;101831.94;;;12.41
29701;BMP280;57917;51.380;-0.176;2023-02-18T21:43:31;101831.03;;;12.20
29701;BMP280;57917;51.380;-0.176;2023-02-18T22:14:05;101824.47;;;12.33
29701;BMP280;57917;51.380;-0.176;2023-02-18T22:20:30;101847.28;;;11.92
29701;BMP280;57917;51.380;-0.176;2023-02-18T22:26:39;101840.59;;;11.85
29701;BMP280;57917;51.380;-0.176;2023-02-18T22:41:22;101835.97;;;11.70
29701;BMP280;57917;51.380;-0.176;2023-02-18T23:02:16;101861.66;;;11.38
29701;BMP280;57917;51.380;-0.176;2023-02-18T23:08:10;101846.44;;;11.55
29701;BMP280;57917;51.380;-0.176;2023-02-18T23:14:04;101856.72;;;11.20
29701;BMP280;57917;51.380;-0.176;2023-02-18T23:20:10;101876.50;;;11.12
29701;BMP280;57917;51.380;-0.176;2023-02-18T23:26:08;101870.44;;;11.17
29701;BMP280;57917;51.380;-0.176;2023-02-18T23:32:16;101866.97;;;11.11
29701;BMP280;57917;51.380;-0.176;2023-02-18T23:38:22;101879.66;;;10.88
29701;BMP280;57917;51.380;-0.176;2023-02-18T23:51:39;101907.31;;;10.59
29701;BMP280;57917;51.380;-0.176;2023-02-18T23:57:36;101903.13;;;10.41
